This is the latest recevied weather packets stored in our database for station/object KC9Q. If no packets are shown the sender has not sent any weather packets the latest 1 day(s).
| Time | Temp. | Humidity | Pressure | Rain* | Wind** | Luminosity | Snow |
|---|---|---|---|---|---|---|---|
| 1777986681 | 15.56° C | 92% | 1008.4 hPa | 7.87 mm | 1.79 m/s, 192° | 13 W/m² | - |
| 1777986379 | 15.56° C | 90% | 1008.1 hPa | 7.87 mm | 1.79 m/s, 220° | 14 W/m² | - |
| 1777986078 | 16.11° C | 88% | 1008.3 hPa | 6.6 mm | 1.79 m/s, 188° | 12 W/m² | - |
| 1777985774 | 16.67° C | 85% | 1008.5 hPa | 3.56 mm | 1.79 m/s, 191° | 6 W/m² | - |
| 1777985471 | 16.67° C | 83% | 1008.4 hPa | 1.27 mm | 2.24 m/s, 209° | 5 W/m² | - |
| 1777985167 | 16.67° C | 81% | 1008 hPa | 0.51 mm | 0.89 m/s, 187° | 9 W/m² | - |
| 1777984863 | 16.67° C | 80% | 1007.6 hPa | 2.29 mm | 1.34 m/s, 198° | 4 W/m² | - |
| 1777984560 | 17.22° C | 78% | 1007.5 hPa | 2.29 mm | 1.79 m/s, 224° | 4 W/m² | - |
| 1777984256 | 17.78° C | 74% | 1007.4 hPa | 0.51 mm | 1.34 m/s, 213° | 7 W/m² | - |
| 1777983953 | 17.78° C | 73% | 1007.5 hPa | 0 mm | 1.34 m/s, 166° | 6 W/m² | - |
| 1777983650 | 17.78° C | 74% | 1007.4 hPa | 0 mm | 2.24 m/s, 198° | 12 W/m² | - |
| 1777983347 | 17.78° C | 73% | 1007.5 hPa | 0 mm | 2.68 m/s, 226° | 12 W/m² | - |
| 1777983043 | 17.78° C | 73% | 1007.2 hPa | 0 mm | 2.68 m/s, 182° | 16 W/m² | - |
| 1777982740 | 17.78° C | 72% | 1007.1 hPa | 0 mm | 1.79 m/s, 180° | 12 W/m² | - |
| 1777982436 | 18.33° C | 69% | 1006.8 hPa | 0 mm | 1.34 m/s, 183° | 10 W/m² | - |
| 1777982130 | 18.33° C | 69% | 1006.7 hPa | 0 mm | 0.89 m/s, 180° | 9 W/m² | - |
| 1777981828 | 18.33° C | 69% | 1006.8 hPa | 0 mm | 0.89 m/s, 184° | 8 W/m² | - |
| 1777981525 | 17.78° C | 69% | 1006.8 hPa | 0 mm | 1.79 m/s, 163° | 7 W/m² | - |
| 1777981221 | 17.78° C | 69% | 1006.7 hPa | 0 mm | 1.34 m/s, 179° | 8 W/m² | - |
| 1777980918 | 17.78° C | 68% | 1006.8 hPa | 0 mm | 1.79 m/s, 168° | 6 W/m² | - |
| 1777980614 | 17.78° C | 68% | 1006.8 hPa | 0 mm | 2.24 m/s, 191° | 7 W/m² | - |
| 1777980311 | 17.78° C | 69% | 1006.6 hPa | 0 mm | 0.89 m/s, 190° | 8 W/m² | - |
| 1777980009 | 17.78° C | 69% | 1006.5 hPa | 0 mm | 2.24 m/s, 190° | 8 W/m² | - |
| 1777979708 | 17.78° C | 69% | 1006.5 hPa | 0 mm | 1.34 m/s, 170° | 6 W/m² | - |
| 1777979404 | 17.78° C | 69% | 1006.5 hPa | 0 mm | 1.34 m/s, 186° | 4 W/m² | - |
* Rain latest hour (hover to see other rain measurements)
** Current wind speed in m/s (hover to see current wind gust speed)